sensor_id;sensor_type;location;lat;lon;timestamp;pressure;altitude;pressure_sealevel;temperature;humidity
75775;BME280;64505;51.458;7.556;2023-05-07T00:00:32;99786.13;;;13.30;93.57
75775;BME280;64505;51.458;7.556;2023-05-07T00:02:35;99797.56;;;13.30;92.80
75775;BME280;64505;51.458;7.556;2023-05-07T00:04:37;99794.09;;;13.30;93.71
75775;BME280;64505;51.458;7.556;2023-05-07T00:06:40;99796.47;;;13.31;92.79
75775;BME280;64505;51.458;7.556;2023-05-07T00:08:41;99791.16;;;13.31;93.61
75775;BME280;64505;51.458;7.556;2023-05-07T00:10:43;99798.34;;;13.31;93.09
75775;BME280;64505;51.458;7.556;2023-05-07T00:12:45;99793.81;;;13.31;94.16
75775;BME280;64505;51.458;7.556;2023-05-07T00:14:46;99795.69;;;13.31;93.21
75775;BME280;64505;51.458;7.556;2023-05-07T00:16:48;99801.78;;;13.31;93.07
75775;BME280;64505;51.458;7.556;2023-05-07T00:18:50;99801.78;;;13.31;93.40
75775;BME280;64505;51.458;7.556;2023-05-07T00:20:51;99804.72;;;13.30;93.74
75775;BME280;64505;51.458;7.556;2023-05-07T00:22:53;99807.09;;;13.31;92.69
75775;BME280;64505;51.458;7.556;2023-05-07T00:24:55;99813.22;;;13.32;93.92
75775;BME280;64505;51.458;7.556;2023-05-07T00:26:56;99808.97;;;13.31;93.40
75775;BME280;64505;51.458;7.556;2023-05-07T00:28:59;99808.97;;;13.31;94.78
75775;BME280;64505;51.458;7.556;2023-05-07T00:31:01;99806.06;;;13.32;93.67
75775;BME280;64505;51.458;7.556;2023-05-07T00:33:02;99808.50;;;13.34;93.71
75775;BME280;64505;51.458;7.556;2023-05-07T00:35:05;99809.53;;;13.33;93.66
75775;BME280;64505;51.458;7.556;2023-05-07T00:37:06;99803.19;;;13.34;94.10
75775;BME280;64505;51.458;7.556;2023-05-07T00:39:11;99807.69;;;13.34;94.69
75775;BME280;64505;51.458;7.556;2023-05-07T00:41:12;99808.72;;;13.32;95.39
75775;BME280;64505;51.458;7.556;2023-05-07T00:43:14;99796.25;;;13.33;94.64
75775;BME280;64505;51.458;7.556;2023-05-07T00:45:16;99805.03;;;13.34;94.43
75775;BME280;64505;51.458;7.556;2023-05-07T00:47:18;99805.59;;;13.36;94.18
75775;BME280;64505;51.458;7.556;2023-05-07T00:49:20;99799.47;;;13.35;93.41
75775;BME280;64505;51.458;7.556;2023-05-07T00:51:22;99802.94;;;13.36;93.89
75775;BME280;64505;51.458;7.556;2023-05-07T00:53:24;99798.22;;;13.38;93.94
75775;BME280;64505;51.458;7.556;2023-05-07T00:55:26;99798.22;;;13.38;94.03
75775;BME280;64505;51.458;7.556;2023-05-07T00:57:28;99798.44;;;13.36;94.19
75775;BME280;64505;51.458;7.556;2023-05-07T00:59:33;99794.75;;;13.37;94.46
75775;BME280;64505;51.458;7.556;2023-05-07T01:01:35;99800.28;;;13.36;94.82
75775;BME280;64505;51.458;7.556;2023-05-07T01:03:38;99800.06;;;13.37;93.53
75775;BME280;64505;51.458;7.556;2023-05-07T01:05:42;99791.28;;;13.37;94.29
75775;BME280;64505;51.458;7.556;2023-05-07T01:07:45;99794.50;;;13.39;94.26
75775;BME280;64505;51.458;7.556;2023-05-07T01:10:11;99792.91;;;13.38;94.15
75775;BME280;64505;51.458;7.556;2023-05-07T01:12:14;99782.50;;;13.36;95.46
75775;BME280;64505;51.458;7.556;2023-05-07T01:14:16;99787.81;;;13.36;94.70
75775;BME280;64505;51.458;7.556;2023-05-07T01:16:19;99788.41;;;13.38;94.60
75775;BME280;64505;51.458;7.556;2023-05-07T01:18:21;99785.75;;;13.38;94.57
75775;BME280;64505;51.458;7.556;2023-05-07T01:20:23;99794.25;;;13.40;93.83
75775;BME280;64505;51.458;7.556;2023-05-07T01:22:33;99792.41;;;13.41;94.41
75775;BME280;64505;51.458;7.556;2023-05-07T01:24:36;99787.09;;;13.41;94.78
75775;BME280;64505;51.458;7.556;2023-05-07T01:26:39;99785.47;;;13.40;94.33
75775;BME280;64505;51.458;7.556;2023-05-07T01:28:41;99781.78;;;13.41;94.54
75775;BME280;64505;51.458;7.556;2023-05-07T01:30:46;99774.03;;;13.39;94.84
75775;BME280;64505;51.458;7.556;2023-05-07T01:32:50;99774.84;;;13.40;94.11
75775;BME280;64505;51.458;7.556;2023-05-07T01:34:54;99774.03;;;13.39;94.49
75775;BME280;64505;51.458;7.556;2023-05-07T01:36:56;99772.91;;;13.35;95.30
75775;BME280;64505;51.458;7.556;2023-05-07T01:39:00;99770.25;;;13.35;94.52
75775;BME280;64505;51.458;7.556;2023-05-07T01:41:03;99771.31;;;13.34;95.05
75775;BME280;64505;51.458;7.556;2023-05-07T01:43:06;99774.53;;;13.36;94.56
75775;BME280;64505;51.458;7.556;2023-05-07T01:45:08;99779.03;;;13.36;94.04
75775;BME280;64505;51.458;7.556;2023-05-07T01:47:10;99779.84;;;13.36;94.19
75775;BME280;64505;51.458;7.556;2023-05-07T01:49:12;99781.69;;;13.36;93.89
75775;BME280;64505;51.458;7.556;2023-05-07T01:51:13;99784.81;;;13.32;95.15
75775;BME280;64505;51.458;7.556;2023-05-07T01:53:15;99782.75;;;13.35;94.33
75775;BME280;64505;51.458;7.556;2023-05-07T01:55:17;99784.34;;;13.36;93.53
75775;BME280;64505;51.458;7.556;2023-05-07T01:57:18;99782.97;;;13.33;94.55
75775;BME280;64505;51.458;7.556;2023-05-07T01:59:20;99782.44;;;13.31;94.59
75775;BME280;64505;51.458;7.556;2023-05-07T02:01:22;99784.28;;;13.30;94.59
75775;BME280;64505;51.458;7.556;2023-05-07T02:03:23;99779.78;;;13.31;94.28
75775;BME280;64505;51.458;7.556;2023-05-07T02:05:25;99788.50;;;13.31;94.98
75775;BME280;64505;51.458;7.556;2023-05-07T02:07:27;99786.94;;;13.30;94.33
75775;BME280;64505;51.458;7.556;2023-05-07T02:09:29;99786.66;;;13.32;94.32
75775;BME280;64505;51.458;7.556;2023-05-07T02:11:31;99785.09;;;13.31;94.18
75775;BME280;64505;51.458;7.556;2023-05-07T02:13:33;99785.31;;;13.29;93.96
75775;BME280;64505;51.458;7.556;2023-05-07T02:15:36;99778.63;;;13.27;94.20
75775;BME280;64505;51.458;7.556;2023-05-07T02:18:04;99775.38;;;13.25;94.29
75775;BME280;64505;51.458;7.556;2023-05-07T02:20:06;99781.19;;;13.22;94.61
75775;BME280;64505;51.458;7.556;2023-05-07T02:22:14;99776.09;;;13.20;94.70
75775;BME280;64505;51.458;7.556;2023-05-07T02:24:16;99780.84;;;13.18;94.57
75775;BME280;64505;51.458;7.556;2023-05-07T02:26:18;99778.41;;;13.17;94.92
75775;BME280;64505;51.458;7.556;2023-05-07T02:28:19;99771.75;;;13.14;94.67
75775;BME280;64505;51.458;7.556;2023-05-07T02:30:21;99773.03;;;13.12;95.07
75775;BME280;64505;51.458;7.556;2023-05-07T02:32:23;99773.25;;;13.10;95.52
75775;BME280;64505;51.458;7.556;2023-05-07T02:34:24;99773.72;;;13.07;94.95
75775;BME280;64505;51.458;7.556;2023-05-07T02:36:26;99773.72;;;13.07;94.22
75775;BME280;64505;51.458;7.556;2023-05-07T02:38:28;99771.19;;;13.01;94.94
75775;BME280;64505;51.458;7.556;2023-05-07T02:40:29;99776.25;;;13.02;94.36
75775;BME280;64505;51.458;7.556;2023-05-07T02:42:31;99770.63;;;12.99;94.56
75775;BME280;64505;51.458;7.556;2023-05-07T02:44:32;99765.56;;;12.97;94.65
75775;BME280;64505;51.458;7.556;2023-05-07T02:46:34;99770.53;;;12.94;95.23
75775;BME280;64505;51.458;7.556;2023-05-07T02:48:36;99776.06;;;12.92;95.36
75775;BME280;64505;51.458;7.556;2023-05-07T02:50:37;99768.34;;;12.91;94.89
75775;BME280;64505;51.458;7.556;2023-05-07T02:52:39;99776.53;;;12.89;95.39
75775;BME280;64505;51.458;7.556;2023-05-07T02:54:43;99776.22;;;12.86;95.60
75775;BME280;64505;51.458;7.556;2023-05-07T02:56:45;99772.75;;;12.85;95.97
75775;BME280;64505;51.458;7.556;2023-05-07T02:58:46;99774.13;;;12.88;94.32
75775;BME280;64505;51.458;7.556;2023-05-07T03:00:48;99765.25;;;12.82;95.00
75775;BME280;64505;51.458;7.556;2023-05-07T03:02:49;99766.06;;;12.82;94.65
75775;BME280;64505;51.458;7.556;2023-05-07T03:04:51;99762.28;;;12.78;95.17
75775;BME280;64505;51.458;7.556;2023-05-07T03:06:53;99757.19;;;12.77;95.36
75775;BME280;64505;51.458;7.556;2023-05-07T03:08:54;99760.44;;;12.79;94.36
75775;BME280;64505;51.458;7.556;2023-05-07T03:10:56;99769.19;;;12.79;94.38
75775;BME280;64505;51.458;7.556;2023-05-07T03:12:57;99764.69;;;12.80;94.26
75775;BME280;64505;51.458;7.556;2023-05-07T03:14:59;99763.88;;;12.79;95.44
75775;BME280;64505;51.458;7.556;2023-05-07T03:17:00;99766.53;;;12.79;95.34
75775;BME280;64505;51.458;7.556;2023-05-07T03:19:02;99773.69;;;12.79;95.00
75775;BME280;64505;51.458;7.556;2023-05-07T03:21:04;99768.38;;;12.79;94.42
75775;BME280;64505;51.458;7.556;2023-05-07T03:23:05;99773.91;;;12.77;94.86
75775;BME280;64505;51.458;7.556;2023-05-07T03:25:08;99770.44;;;12.77;95.45
75775;BME280;64505;51.458;7.556;2023-05-07T03:27:10;99771.25;;;12.77;95.78
75775;BME280;64505;51.458;7.556;2023-05-07T03:29:11;99773.91;;;12.77;95.47
75775;BME280;64505;51.458;7.556;2023-05-07T03:31:13;99765.16;;;12.77;95.27
75775;BME280;64505;51.458;7.556;2023-05-07T03:33:14;99771.50;;;12.76;95.34
75775;BME280;64505;51.458;7.556;2023-05-07T03:35:16;99769.41;;;12.78;95.03
75775;BME280;64505;51.458;7.556;2023-05-07T03:37:18;99770.44;;;12.77;94.70
75775;BME280;64505;51.458;7.556;2023-05-07T03:39:20;99776.00;;;12.75;95.53
75775;BME280;64505;51.458;7.556;2023-05-07T03:41:22;99774.97;;;12.76;95.47
75775;BME280;64505;51.458;7.556;2023-05-07T03:43:23;99771.50;;;12.76;95.64
75775;BME280;64505;51.458;7.556;2023-05-07T03:45:25;99764.91;;;12.78;95.40
75775;BME280;64505;51.458;7.556;2023-05-07T03:47:27;99769.66;;;12.76;96.01
75775;BME280;64505;51.458;7.556;2023-05-07T03:49:28;99771.25;;;12.77;96.39
75775;BME280;64505;51.458;7.556;2023-05-07T03:51:30;99770.22;;;12.78;95.72
75775;BME280;64505;51.458;7.556;2023-05-07T03:53:31;99782.47;;;12.79;95.26
75775;BME280;64505;51.458;7.556;2023-05-07T03:55:33;99785.94;;;12.80;95.68
75775;BME280;64505;51.458;7.556;2023-05-07T03:57:35;99779.22;;;12.77;95.98
75775;BME280;64505;51.458;7.556;2023-05-07T03:59:36;99787.78;;;12.79;95.96
75775;BME280;64505;51.458;7.556;2023-05-07T04:01:38;99790.16;;;12.81;96.07
75775;BME280;64505;51.458;7.556;2023-05-07T04:03:40;99787.53;;;12.81;96.06
75775;BME280;64505;51.458;7.556;2023-05-07T04:05:41;99791.25;;;12.80;95.62
75775;BME280;64505;51.458;7.556;2023-05-07T04:07:43;99790.97;;;12.81;95.53
75775;BME280;64505;51.458;7.556;2023-05-07T04:09:45;99795.47;;;12.81;95.03
75775;BME280;64505;51.458;7.556;2023-05-07T04:11:47;99788.59;;;12.80;96.40
75775;BME280;64505;51.458;7.556;2023-05-07T04:13:49;99797.09;;;12.82;95.43
75775;BME280;64505;51.458;7.556;2023-05-07T04:15:51;99797.09;;;12.82;94.82
75775;BME280;64505;51.458;7.556;2023-05-07T04:17:53;99793.97;;;12.85;95.17
75775;BME280;64505;51.458;7.556;2023-05-07T04:19:54;99797.69;;;12.84;96.11
75775;BME280;64505;51.458;7.556;2023-05-07T04:21:56;99803.56;;;12.86;95.26
75775;BME280;64505;51.458;7.556;2023-05-07T04:23:58;99805.41;;;12.86;96.18
75775;BME280;64505;51.458;7.556;2023-05-07T04:25:59;99807.03;;;12.87;96.20
75775;BME280;64505;51.458;7.556;2023-05-07T04:28:02;99794.66;;;12.92;94.92
75775;BME280;64505;51.458;7.556;2023-05-07T04:30:04;99794.91;;;12.91;95.34
75775;BME280;64505;51.458;7.556;2023-05-07T04:32:05;99797.28;;;12.92;95.55
75775;BME280;64505;51.458;7.556;2023-05-07T04:34:07;99793.13;;;12.96;95.13
75775;BME280;64505;51.458;7.556;2023-05-07T04:36:10;99791.50;;;12.95;95.62
75775;BME280;64505;51.458;7.556;2023-05-07T04:38:12;99790.47;;;12.96;95.85
75775;BME280;64505;51.458;7.556;2023-05-07T04:40:13;99797.16;;;12.99;94.43
75775;BME280;64505;51.458;7.556;2023-05-07T04:42:16;99798.31;;;13.03;94.37
75775;BME280;64505;51.458;7.556;2023-05-07T04:44:18;99800.72;;;13.04;95.03
75775;BME280;64505;51.458;7.556;2023-05-07T04:46:19;99803.38;;;13.04;95.69
75775;BME280;64505;51.458;7.556;2023-05-07T04:48:21;99801.06;;;13.08;94.68
75775;BME280;64505;51.458;7.556;2023-05-07T04:50:23;99797.97;;;13.11;95.05
75775;BME280;64505;51.458;7.556;2023-05-07T04:52:25;99801.75;;;13.15;94.82
75775;BME280;64505;51.458;7.556;2023-05-07T04:54:27;99805.56;;;13.19;94.61
75775;BME280;64505;51.458;7.556;2023-05-07T04:56:29;99799.06;;;13.26;93.54
75775;BME280;64505;51.458;7.556;2023-05-07T04:58:31;99812.41;;;13.31;94.59
75775;BME280;64505;51.458;7.556;2023-05-07T05:00:33;99812.28;;;13.38;93.85
75775;BME280;64505;51.458;7.556;2023-05-07T05:02:35;99819.53;;;13.43;94.17
75775;BME280;64505;51.458;7.556;2023-05-07T05:04:36;99820.13;;;13.45;94.75
75775;BME280;64505;51.458;7.556;2023-05-07T05:06:39;99816.00;;;13.54;94.31
75775;BME280;64505;51.458;7.556;2023-05-07T05:08:41;99817.97;;;13.58;94.27
75775;BME280;64505;51.458;7.556;2023-05-07T05:10:43;99802.91;;;13.64;94.17
75775;BME280;64505;51.458;7.556;2023-05-07T05:12:44;99807.50;;;13.68;93.62
75775;BME280;64505;51.458;7.556;2023-05-07T05:14:46;99805.50;;;13.75;92.73
75775;BME280;64505;51.458;7.556;2023-05-07T05:16:48;99810.91;;;13.80;93.16
75775;BME280;64505;51.458;7.556;2023-05-07T05:18:50;99805.59;;;13.80;93.35
75775;BME280;64505;51.458;7.556;2023-05-07T05:20:53;99810.19;;;13.85;93.10
75775;BME280;64505;51.458;7.556;2023-05-07T05:22:54;99810.50;;;13.89;92.98
75775;BME280;64505;51.458;7.556;2023-05-07T05:24:56;99808.94;;;13.93;92.46
75775;BME280;64505;51.458;7.556;2023-05-07T05:26:58;99817.28;;;13.96;92.33
75775;BME280;64505;51.458;7.556;2023-05-07T05:29:02;99808.81;;;13.99;92.25
75775;BME280;64505;51.458;7.556;2023-05-07T05:31:04;99820.59;;;14.03;91.27
75775;BME280;64505;51.458;7.556;2023-05-07T05:33:06;99816.84;;;14.04;92.46
75775;BME280;64505;51.458;7.556;2023-05-07T05:35:08;99818.69;;;14.04;92.36
75775;BME280;64505;51.458;7.556;2023-05-07T05:37:10;99814.94;;;14.00;93.96
75775;BME280;64505;51.458;7.556;2023-05-07T05:39:11;99817.16;;;14.08;91.55
75775;BME280;64505;51.458;7.556;2023-05-07T05:41:14;99823.88;;;14.10;92.04
75775;BME280;64505;51.458;7.556;2023-05-07T05:43:15;99819.44;;;14.16;92.22
75775;BME280;64505;51.458;7.556;2023-05-07T05:45:17;99820.06;;;14.23;90.68
75775;BME280;64505;51.458;7.556;2023-05-07T05:47:19;99816.38;;;14.24;91.39
75775;BME280;64505;51.458;7.556;2023-05-07T05:49:21;99819.09;;;14.29;91.60
75775;BME280;64505;51.458;7.556;2023-05-07T05:51:23;99819.91;;;14.29;91.86
75775;BME280;64505;51.458;7.556;2023-05-07T05:53:24;99828.81;;;14.35;90.94
75775;BME280;64505;51.458;7.556;2023-05-07T05:55:26;99829.13;;;14.39;90.43
75775;BME280;64505;51.458;7.556;2023-05-07T05:57:28;99835.63;;;14.48;90.10
75775;BME280;64505;51.458;7.556;2023-05-07T05:59:29;99832.16;;;14.47;91.02
75775;BME280;64505;51.458;7.556;2023-05-07T06:01:32;99837.88;;;14.56;89.35
75775;BME280;64505;51.458;7.556;2023-05-07T06:03:33;99837.13;;;14.60;89.28
75775;BME280;64505;51.458;7.556;2023-05-07T06:05:35;99834.78;;;14.64;89.78
75775;BME280;64505;51.458;7.556;2023-05-07T06:07:36;99837.78;;;14.67;88.83
75775;BME280;64505;51.458;7.556;2023-05-07T06:09:38;99836.28;;;14.76;88.48
75775;BME280;64505;51.458;7.556;2023-05-07T06:11:39;99833.50;;;14.88;90.27
75775;BME280;64505;51.458;7.556;2023-05-07T06:13:42;99831.72;;;14.94;89.12
75775;BME280;64505;51.458;7.556;2023-05-07T06:15:43;99838.53;;;15.06;88.30
75775;BME280;64505;51.458;7.556;2023-05-07T06:17:45;99833.81;;;15.13;87.50
75775;BME280;64505;51.458;7.556;2023-05-07T06:19:46;99844.94;;;15.32;87.41
75775;BME280;64505;51.458;7.556;2023-05-07T06:21:48;99838.41;;;15.45;87.67
75775;BME280;64505;51.458;7.556;2023-05-07T06:23:50;99850.56;;;15.57;88.04
75775;BME280;64505;51.458;7.556;2023-05-07T06:25:53;99851.31;;;15.53;87.27
75775;BME280;64505;51.458;7.556;2023-05-07T06:27:55;99850.97;;;15.71;86.88
75775;BME280;64505;51.458;7.556;2023-05-07T06:29:56;99852.66;;;15.82;86.22
75775;BME280;64505;51.458;7.556;2023-05-07T06:32:06;99854.81;;;15.85;86.34
75775;BME280;64505;51.458;7.556;2023-05-07T06:34:08;99854.31;;;15.88;85.91
75775;BME280;64505;51.458;7.556;2023-05-07T06:36:09;99857.09;;;15.98;85.25
75775;BME280;64505;51.458;7.556;2023-05-07T06:38:11;99857.91;;;15.99;85.03
75775;BME280;64505;51.458;7.556;2023-05-07T06:40:13;99860.88;;;16.07;84.65
75775;BME280;64505;51.458;7.556;2023-05-07T06:42:15;99858.97;;;16.03;84.34
75775;BME280;64505;51.458;7.556;2023-05-07T06:44:16;99848.88;;;16.05;84.61
75775;BME280;64505;51.458;7.556;2023-05-07T06:46:18;99859.25;;;16.01;84.80
75775;BME280;64505;51.458;7.556;2023-05-07T06:48:19;99861.22;;;16.16;84.52
75775;BME280;64505;51.458;7.556;2023-05-07T06:50:21;99868.66;;;16.14;84.99
75775;BME280;64505;51.458;7.556;2023-05-07T06:52:23;99866.28;;;16.12;83.88
75775;BME280;64505;51.458;7.556;2023-05-07T06:54:24;99854.56;;;16.18;85.16
75775;BME280;64505;51.458;7.556;2023-05-07T06:56:26;99865.81;;;16.25;85.80
75775;BME280;64505;51.458;7.556;2023-05-07T06:58:27;99867.44;;;16.27;82.85
75775;BME280;64505;51.458;7.556;2023-05-07T07:00:29;99870.22;;;16.42;83.23
75775;BME280;64505;51.458;7.556;2023-05-07T07:02:32;99864.25;;;16.30;82.86
75775;BME280;64505;51.458;7.556;2023-05-07T07:04:33;99868.03;;;16.39;82.92
75775;BME280;64505;51.458;7.556;2023-05-07T07:06:35;99870.81;;;16.49;81.90
75775;BME280;64505;51.458;7.556;2023-05-07T07:08:36;99871.31;;;16.46;81.82
75775;BME280;64505;51.458;7.556;2023-05-07T07:10:40;99863.31;;;16.46;82.56
75775;BME280;64505;51.458;7.556;2023-05-07T07:12:41;99870.91;;;16.64;81.52
75775;BME280;64505;51.458;7.556;2023-05-07T07:14:43;99868.50;;;16.62;81.36
75775;BME280;64505;51.458;7.556;2023-05-07T07:16:44;99871.00;;;16.74;82.63
75775;BME280;64505;51.458;7.556;2023-05-07T07:18:48;99871.53;;;16.76;81.31
75775;BME280;64505;51.458;7.556;2023-05-07T07:20:49;99876.66;;;16.88;81.02
75775;BME280;64505;51.458;7.556;2023-05-07T07:22:51;99872.09;;;16.83;81.18
75775;BME280;64505;51.458;7.556;2023-05-07T07:24:53;99874.03;;;16.98;81.36
75775;BME280;64505;51.458;7.556;2023-05-07T07:26:54;99868.72;;;17.03;81.57
75775;BME280;64505;51.458;7.556;2023-05-07T07:28:56;99863.41;;;17.13;81.63
75775;BME280;64505;51.458;7.556;2023-05-07T07:30:58;99860.22;;;17.11;80.15
75775;BME280;64505;51.458;7.556;2023-05-07T07:33:00;99871.97;;;17.10;79.98
75775;BME280;64505;51.458;7.556;2023-05-07T07:35:04;99872.22;;;17.03;78.77
75775;BME280;64505;51.458;7.556;2023-05-07T07:37:06;99864.13;;;16.93;80.81
75775;BME280;64505;51.458;7.556;2023-05-07T07:39:07;99870.66;;;17.22;80.59
75775;BME280;64505;51.458;7.556;2023-05-07T07:41:09;99869.91;;;17.32;79.63
75775;BME280;64505;51.458;7.556;2023-05-07T07:43:11;99873.66;;;17.41;80.16
75775;BME280;64505;51.458;7.556;2023-05-07T07:45:12;99876.09;;;17.43;79.52
75775;BME280;64505;51.458;7.556;2023-05-07T07:47:14;99872.31;;;17.44;79.36
75775;BME280;64505;51.458;7.556;2023-05-07T07:49:18;99875.06;;;17.59;78.95
75775;BME280;64505;51.458;7.556;2023-05-07T07:51:20;99884.13;;;17.53;77.75
75775;BME280;64505;51.458;7.556;2023-05-07T07:53:21;99866.28;;;17.63;78.42
75775;BME280;64505;51.458;7.556;2023-05-07T07:55:23;99866.31;;;17.79;79.06
75775;BME280;64505;51.458;7.556;2023-05-07T07:57:25;99870.84;;;17.83;77.12
75775;BME280;64505;51.458;7.556;2023-05-07T07:59:26;99869.50;;;17.81;76.94
75775;BME280;64505;51.458;7.556;2023-05-07T08:01:29;99878.31;;;17.76;77.09
75775;BME280;64505;51.458;7.556;2023-05-07T08:03:31;99876.75;;;17.90;76.08
75775;BME280;64505;51.458;7.556;2023-05-07T08:05:34;99881.53;;;17.98;77.13
75775;BME280;64505;51.458;7.556;2023-05-07T08:07:35;99883.44;;;18.03;76.10
75775;BME280;64505;51.458;7.556;2023-05-07T08:09:39;99879.94;;;18.12;76.36
75775;BME280;64505;51.458;7.556;2023-05-07T08:11:41;99881.03;;;18.16;76.67
75775;BME280;64505;51.458;7.556;2023-05-07T08:13:43;99877.00;;;18.29;76.07
75775;BME280;64505;51.458;7.556;2023-05-07T08:15:44;99886.66;;;18.30;75.38
75775;BME280;64505;51.458;7.556;2023-05-07T08:17:46;99885.31;;;18.23;74.98
75775;BME280;64505;51.458;7.556;2023-05-07T08:19:48;99884.78;;;18.20;76.29
75775;BME280;64505;51.458;7.556;2023-05-07T08:21:49;99883.97;;;18.30;75.62
75775;BME280;64505;51.458;7.556;2023-05-07T08:23:56;99883.72;;;18.37;75.31
75775;BME280;64505;51.458;7.556;2023-05-07T08:25:58;99885.28;;;18.38;75.59
75775;BME280;64505;51.458;7.556;2023-05-07T08:28:00;99883.16;;;18.45;74.24
75775;BME280;64505;51.458;7.556;2023-05-07T08:30:03;99882.91;;;18.51;74.58
75775;BME280;64505;51.458;7.556;2023-05-07T08:32:04;99884.78;;;18.51;74.61
75775;BME280;64505;51.458;7.556;2023-05-07T08:34:06;99878.88;;;18.54;73.79
75775;BME280;64505;51.458;7.556;2023-05-07T08:36:10;99886.13;;;18.58;74.05
75775;BME280;64505;51.458;7.556;2023-05-07T08:38:11;99887.97;;;18.68;72.28
75775;BME280;64505;51.458;7.556;2023-05-07T08:40:13;99891.69;;;18.87;73.80
75775;BME280;64505;51.458;7.556;2023-05-07T08:42:16;99903.47;;;18.91;74.18
75775;BME280;64505;51.458;7.556;2023-05-07T08:44:20;99892.97;;;19.00;74.71
75775;BME280;64505;51.458;7.556;2023-05-07T08:46:25;99900.44;;;19.08;73.61
75775;BME280;64505;51.458;7.556;2023-05-07T08:48:27;99892.94;;;19.10;73.61
75775;BME280;64505;51.458;7.556;2023-05-07T08:50:31;99894.47;;;19.26;74.88
75775;BME280;64505;51.458;7.556;2023-05-07T08:52:32;99899.50;;;19.43;74.37
75775;BME280;64505;51.458;7.556;2023-05-07T08:54:36;99902.41;;;19.56;71.23
75775;BME280;64505;51.458;7.556;2023-05-07T08:56:38;99897.25;;;19.65;71.48
75775;BME280;64505;51.458;7.556;2023-05-07T08:58:42;99907.34;;;19.83;70.90
75775;BME280;64505;51.458;7.556;2023-05-07T09:00:44;99904.06;;;19.91;69.40
75775;BME280;64505;51.458;7.556;2023-05-07T09:02:45;99899.41;;;20.07;71.66
75775;BME280;64505;51.458;7.556;2023-05-07T09:04:47;99907.94;;;20.14;70.14
75775;BME280;64505;51.458;7.556;2023-05-07T09:06:49;99899.00;;;20.29;69.08
75775;BME280;64505;51.458;7.556;2023-05-07T09:08:53;99895.16;;;20.35;71.55
75775;BME280;64505;51.458;7.556;2023-05-07T09:10:55;99899.75;;;20.34;69.17
75775;BME280;64505;51.458;7.556;2023-05-07T09:12:57;99891.66;;;20.39;69.30
75775;BME280;64505;51.458;7.556;2023-05-07T09:14:59;99883.56;;;20.68;70.58
75775;BME280;64505;51.458;7.556;2023-05-07T09:17:01;99888.06;;;20.49;68.75
75775;BME280;64505;51.458;7.556;2023-05-07T09:19:02;99886.19;;;20.49;70.04
75775;BME280;64505;51.458;7.556;2023-05-07T09:21:04;99886.19;;;20.73;71.13
75775;BME280;64505;51.458;7.556;2023-05-07T09:23:07;99888.00;;;20.83;70.69
75775;BME280;64505;51.458;7.556;2023-05-07T09:25:09;99887.16;;;20.58;70.64
75775;BME280;64505;51.458;7.556;2023-05-07T09:27:11;99890.03;;;20.67;70.46
75775;BME280;64505;51.458;7.556;2023-05-07T09:29:15;99891.03;;;20.76;71.02
75775;BME280;64505;51.458;7.556;2023-05-07T09:31:18;99890.75;;;21.01;70.58
75775;BME280;64505;51.458;7.556;2023-05-07T09:33:26;99887.53;;;20.99;70.79
75775;BME280;64505;51.458;7.556;2023-05-07T09:35:29;99892.97;;;20.94;72.38
75775;BME280;64505;51.458;7.556;2023-05-07T09:37:30;99884.78;;;20.81;70.38
75775;BME280;64505;51.458;7.556;2023-05-07T09:39:45;99885.56;;;20.57;69.96
75775;BME280;64505;51.458;7.556;2023-05-07T09:41:48;99885.47;;;20.68;70.96
75775;BME280;64505;51.458;7.556;2023-05-07T09:43:55;99885.91;;;20.51;70.63
75775;BME280;64505;51.458;7.556;2023-05-07T09:45:58;99886.91;;;20.55;71.80
75775;BME280;64505;51.458;7.556;2023-05-07T09:48:04;99890.38;;;20.60;71.15
75775;BME280;64505;51.458;7.556;2023-05-07T09:50:08;99897.06;;;20.63;71.30
75775;BME280;64505;51.458;7.556;2023-05-07T09:52:10;99893.41;;;20.54;69.89
75775;BME280;64505;51.458;7.556;2023-05-07T09:54:11;99897.00;;;20.92;72.21
75775;BME280;64505;51.458;7.556;2023-05-07T09:56:14;99896.16;;;20.96;70.73
75775;BME280;64505;51.458;7.556;2023-05-07T09:58:19;99895.78;;;21.08;70.17
75775;BME280;64505;51.458;7.556;2023-05-07T10:00:22;99894.28;;;21.21;69.19
75775;BME280;64505;51.458;7.556;2023-05-07T10:02:27;99893.09;;;21.50;70.06
75775;BME280;64505;51.458;7.556;2023-05-07T10:04:31;99895.16;;;21.77;68.99
75775;BME280;64505;51.458;7.556;2023-05-07T10:06:34;99901.22;;;21.45;65.97
75775;BME280;64505;51.458;7.556;2023-05-07T10:08:37;99903.09;;;21.26;62.40
75775;BME280;64505;51.458;7.556;2023-05-07T10:10:39;99903.16;;;21.21;63.46
75775;BME280;64505;51.458;7.556;2023-05-07T10:12:41;99898.25;;;21.47;65.87
75775;BME280;64505;51.458;7.556;2023-05-07T10:14:43;99896.81;;;21.73;64.90
75775;BME280;64505;51.458;7.556;2023-05-07T10:16:47;99903.00;;;21.74;66.11
75775;BME280;64505;51.458;7.556;2023-05-07T10:18:49;99892.91;;;21.66;64.32
75775;BME280;64505;51.458;7.556;2023-05-07T10:20:51;99898.91;;;21.57;64.27
75775;BME280;64505;51.458;7.556;2023-05-07T10:22:57;99893.25;;;21.59;66.16
75775;BME280;64505;51.458;7.556;2023-05-07T10:25:02;99888.00;;;21.68;65.61
75775;BME280;64505;51.458;7.556;2023-05-07T10:27:12;99888.44;;;21.75;65.21
75775;BME280;64505;51.458;7.556;2023-05-07T10:29:21;99888.00;;;21.86;68.05
75775;BME280;64505;51.458;7.556;2023-05-07T10:33:29;99898.28;;;22.03;65.35
75775;BME280;64505;51.458;7.556;2023-05-07T10:35:37;99896.59;;;21.88;63.77
75775;BME280;64505;51.458;7.556;2023-05-07T10:37:40;99897.94;;;21.91;63.91
75775;BME280;64505;51.458;7.556;2023-05-07T10:39:42;99892.25;;;21.92;64.87
75775;BME280;64505;51.458;7.556;2023-05-07T10:41:44;99899.16;;;21.80;61.50
75775;BME280;64505;51.458;7.556;2023-05-07T10:43:45;99894.88;;;22.30;63.29
75775;BME280;64505;51.458;7.556;2023-05-07T10:46:24;99903.94;;;22.20;63.97
75775;BME280;64505;51.458;7.556;2023-05-07T10:48:26;99894.44;;;22.55;63.61
75775;BME280;64505;51.458;7.556;2023-05-07T10:50:30;99892.00;;;22.72;62.40